createdAt,value
2023-05-09T05:03:24.760Z,545.00
2023-05-09T05:04:25.669Z,546.00
2023-05-09T05:05:26.005Z,546.00
2023-05-09T05:06:25.718Z,543.00
2023-05-09T05:07:25.740Z,541.00
2023-05-09T05:08:24.754Z,544.00
2023-05-09T05:09:25.831Z,541.00
2023-05-09T05:10:25.846Z,542.00
2023-05-09T05:11:25.872Z,542.00
2023-05-09T05:12:25.865Z,543.00
2023-05-09T05:13:24.973Z,542.00
2023-05-09T05:14:24.877Z,542.00
2023-05-09T05:15:25.878Z,542.00
2023-05-09T05:16:25.811Z,541.00
2023-05-09T05:17:25.932Z,538.00
2023-05-09T05:18:24.961Z,539.00
2023-05-09T05:19:25.166Z,542.00
2023-05-09T05:20:26.104Z,540.00
2023-05-09T05:21:26.139Z,541.00
2023-05-09T05:22:25.222Z,543.00
2023-05-09T05:23:27.282Z,543.00
2023-05-09T05:24:25.345Z,540.00
2023-05-09T05:25:26.414Z,539.00
2023-05-09T05:26:25.421Z,541.00
2023-05-09T05:27:26.464Z,544.00
2023-05-09T05:28:25.457Z,546.00
2023-05-09T05:29:26.492Z,546.00
2023-05-09T05:30:26.511Z,544.00
2023-05-09T05:31:26.563Z,542.00
2023-05-09T05:32:26.628Z,541.00
2023-05-09T05:33:26.616Z,545.00
2023-05-09T05:34:26.617Z,548.00
2023-05-09T05:35:26.822Z,547.00
2023-05-09T05:36:25.654Z,544.00
2023-05-09T05:37:26.700Z,545.00
2023-05-09T05:38:26.694Z,545.00
2023-05-09T05:39:25.755Z,543.00
2023-05-09T05:40:25.781Z,542.00
2023-05-09T05:41:26.810Z,541.00
2023-05-09T05:42:26.876Z,541.00
2023-05-09T05:43:25.907Z,543.00
2023-05-09T05:44:26.940Z,542.00
2023-05-09T05:45:26.979Z,544.00
2023-05-09T05:46:27.050Z,541.00
2023-05-09T05:48:26.082Z,543.00
2023-05-09T05:49:26.139Z,544.00
2023-05-09T05:50:27.220Z,545.00
2023-05-09T05:51:27.357Z,547.00
2023-05-09T05:52:26.294Z,549.00
2023-05-09T05:53:26.328Z,552.00
2023-05-09T05:54:27.392Z,556.00
2023-05-09T05:55:27.418Z,560.00
2023-05-09T05:56:26.453Z,562.00
2023-05-09T05:57:27.500Z,564.00
2023-05-09T05:58:27.552Z,566.00
2023-05-09T05:59:26.604Z,567.00
2023-05-09T06:00:26.629Z,569.00
2023-05-09T06:01:26.690Z,571.00
2023-05-09T06:02:27.819Z,576.00
2023-05-09T06:03:27.860Z,574.00
2023-05-09T06:04:28.296Z,573.00
2023-05-09T06:05:27.936Z,572.00
2023-05-09T06:06:26.991Z,572.00
2023-05-09T06:07:28.161Z,571.00
2023-05-09T06:08:27.112Z,568.00
2023-05-09T06:09:27.166Z,571.00
2023-05-09T06:10:28.236Z,576.00
2023-05-09T06:11:27.281Z,577.00
2023-05-09T06:12:28.117Z,575.00
2023-05-09T06:13:28.517Z,574.00
2023-05-09T06:14:28.460Z,576.00
2023-05-09T06:15:28.527Z,578.00
2023-05-09T06:16:27.664Z,579.00
2023-05-09T06:17:27.684Z,581.00
2023-05-09T06:18:28.697Z,584.00
2023-05-09T06:19:28.760Z,591.00
2023-05-09T06:20:28.895Z,593.00
2023-05-09T06:21:28.890Z,593.00
2023-05-09T06:22:27.949Z,596.00
2023-05-09T06:23:28.133Z,596.00
2023-05-09T06:24:35.680Z,598.00
2023-05-09T06:25:29.063Z,603.00
2023-05-09T06:26:29.075Z,607.00
2023-05-09T06:27:29.032Z,610.00
2023-05-09T06:28:29.028Z,612.00
2023-05-09T06:29:28.028Z,617.00
2023-05-09T06:30:29.068Z,622.00
2023-05-09T06:31:28.023Z,620.00
2023-05-09T06:32:28.041Z,620.00
2023-05-09T06:33:28.995Z,624.00
2023-05-09T06:34:27.995Z,629.00
2023-05-09T06:35:28.973Z,639.00
2023-05-09T06:36:27.962Z,641.00
2023-05-09T06:37:28.968Z,641.00
2023-05-09T06:38:28.963Z,640.00
2023-05-09T06:39:29.084Z,640.00
2023-05-09T06:40:29.021Z,642.00
2023-05-09T06:41:28.957Z,643.00
2023-05-09T06:42:28.929Z,646.00
2023-05-09T06:43:28.932Z,647.00
2023-05-09T06:44:28.948Z,647.00
2023-05-09T06:45:28.969Z,648.00
2023-05-09T06:46:27.941Z,649.00
2023-05-09T06:47:27.925Z,647.00
2023-05-09T06:48:28.868Z,646.00
2023-05-09T06:49:27.876Z,648.00
2023-05-09T06:50:30.190Z,651.00
2023-05-09T06:51:28.878Z,661.00
2023-05-09T06:52:28.868Z,679.00
2023-05-09T06:53:28.995Z,690.00
2023-05-09T06:54:29.309Z,696.00
2023-05-09T06:55:27.940Z,705.00
2023-05-09T06:56:28.808Z,717.00
2023-05-09T06:57:28.865Z,718.00
2023-05-09T06:58:27.808Z,722.00
2023-05-09T06:59:27.815Z,724.00
2023-05-09T07:00:27.798Z,723.00
2023-05-09T07:01:27.922Z,719.00
2023-05-09T07:02:28.888Z,719.00
2023-05-09T07:03:27.779Z,719.00
2023-05-09T07:04:28.811Z,720.00
2023-05-09T07:05:28.836Z,720.00
2023-05-09T07:06:27.768Z,721.00
2023-05-09T07:07:28.757Z,721.00
2023-05-09T07:08:27.743Z,724.00
2023-05-09T07:09:28.784Z,724.00
2023-05-09T07:10:28.733Z,726.00
2023-05-09T07:11:28.844Z,727.00
2023-05-09T07:12:28.715Z,728.00
2023-05-09T07:13:28.711Z,729.00
2023-05-09T07:14:27.699Z,731.00
2023-05-09T07:15:39.678Z,737.00
2023-05-09T07:16:28.754Z,742.00
2023-05-09T07:17:27.752Z,744.00
2023-05-09T07:18:28.744Z,747.00
2023-05-09T07:19:27.739Z,747.00
2023-05-09T07:20:28.724Z,748.00
2023-05-09T07:21:28.705Z,749.00
2023-05-09T07:22:29.926Z,751.00
2023-05-09T07:23:28.706Z,754.00
2023-05-09T07:24:28.732Z,757.00
2023-05-09T07:25:28.684Z,763.00
2023-05-09T07:26:28.674Z,768.00
2023-05-09T07:27:27.718Z,769.00
2023-05-09T07:28:28.668Z,771.00
2023-05-09T07:29:28.676Z,772.00
2023-05-09T07:30:27.664Z,776.00
2023-05-09T07:31:28.693Z,783.00
2023-05-09T07:32:28.855Z,790.00
2023-05-09T07:33:28.636Z,792.00
2023-05-09T07:34:28.659Z,793.00
2023-05-09T07:35:27.622Z,799.00
2023-05-09T07:36:27.611Z,803.00
2023-05-09T07:37:28.614Z,805.00
2023-05-09T07:38:27.584Z,837.00
2023-05-09T07:39:27.614Z,869.00
2023-05-09T07:40:28.588Z,869.00
2023-05-09T07:41:28.581Z,880.00
2023-05-09T07:42:28.565Z,889.00
2023-05-09T07:43:28.706Z,902.00
2023-05-09T07:44:28.553Z,915.00
2023-05-09T07:45:27.572Z,903.00
2023-05-09T07:46:27.643Z,897.00
2023-05-09T07:47:27.575Z,888.00
2023-05-09T07:48:28.523Z,890.00
2023-05-09T07:49:27.505Z,892.00
2023-05-09T07:50:28.877Z,901.00
2023-05-09T07:51:28.494Z,934.00
2023-05-09T07:52:28.484Z,1014.00
2023-05-09T07:53:28.475Z,996.00
2023-05-09T07:54:27.466Z,1007.00
2023-05-09T07:55:27.493Z,1041.00
2023-05-09T07:56:28.467Z,1084.00
2023-05-09T07:57:28.499Z,1143.00
2023-05-09T07:58:28.502Z,1191.00
2023-05-09T07:59:28.646Z,1284.00
2023-05-09T08:00:27.528Z,1268.00
2023-05-09T08:01:28.555Z,1278.00
2023-05-09T08:02:27.647Z,1299.00
2023-05-09T08:03:27.650Z,1315.00
2023-05-09T08:04:28.601Z,1349.00
2023-05-09T08:05:28.553Z,1330.00
2023-05-09T08:06:28.540Z,1381.00
2023-05-09T08:07:27.540Z,1399.00
2023-05-09T08:08:28.547Z,1398.00
2023-05-09T08:09:27.544Z,1405.00
2023-05-09T08:10:28.550Z,1443.00
2023-05-09T08:11:27.551Z,1435.00
2023-05-09T08:12:28.553Z,1446.00
2023-05-09T08:13:28.580Z,1460.00
2023-05-09T08:14:27.586Z,1476.00
2023-05-09T08:15:28.710Z,1462.00
2023-05-09T08:16:28.591Z,1413.00
2023-05-09T08:17:27.570Z,1429.00
2023-05-09T08:18:28.548Z,1447.00
2023-05-09T08:19:28.536Z,1480.00
2023-05-09T08:20:28.541Z,1501.00
2023-05-09T08:21:28.553Z,1491.00
2023-05-09T08:22:28.560Z,1472.00
2023-05-09T08:23:28.589Z,1481.00
2023-05-09T08:24:27.608Z,1448.00
2023-05-09T08:25:27.655Z,1456.00
2023-05-09T08:26:27.681Z,1472.00
2023-05-09T08:27:27.720Z,1482.00
2023-05-09T08:28:27.755Z,1561.00
2023-05-09T08:29:28.776Z,1472.00
2023-05-09T08:30:28.817Z,1472.00
2023-05-09T08:31:29.062Z,1476.00
2023-05-09T08:32:27.930Z,1465.00
2023-05-09T08:33:29.005Z,1471.00
2023-05-09T08:34:28.036Z,1475.00
2023-05-09T08:35:29.076Z,1395.00
2023-05-09T08:36:29.102Z,1546.00
2023-05-09T08:37:28.133Z,1542.00
2023-05-09T08:38:29.186Z,1582.00
2023-05-09T08:39:29.246Z,1558.00
2023-05-09T08:40:29.286Z,1525.00
2023-05-09T08:41:29.317Z,1565.00
2023-05-09T08:42:28.359Z,1532.00
2023-05-09T08:43:28.375Z,1526.00
2023-05-09T08:44:28.383Z,1515.00
2023-05-09T08:45:29.867Z,1509.00
2023-05-09T08:46:28.421Z,1509.00
2023-05-09T08:47:29.608Z,1520.00
2023-05-09T08:48:29.424Z,1522.00
2023-05-09T08:49:28.420Z,1527.00
2023-05-09T08:50:28.453Z,1539.00
2023-05-09T08:51:28.435Z,1538.00
2023-05-09T08:52:28.437Z,1541.00
2023-05-09T08:53:28.439Z,1571.00
2023-05-09T08:54:28.411Z,1585.00
2023-05-09T08:55:29.867Z,1577.00
2023-05-09T08:56:29.413Z,1579.00
2023-05-09T08:57:29.454Z,1596.00
2023-05-09T08:58:29.411Z,1604.00
2023-05-09T08:59:28.413Z,1780.00
2023-05-09T09:00:29.426Z,1756.00
2023-05-09T09:01:29.472Z,1747.00
2023-05-09T09:02:29.502Z,1848.00
2023-05-09T09:03:29.625Z,1704.00
2023-05-09T09:04:28.446Z,1638.00
2023-05-09T09:06:29.468Z,1641.00
2023-05-09T09:07:31.158Z,1629.00
2023-05-09T09:08:29.453Z,1626.00
2023-05-09T09:09:28.448Z,1635.00
2023-05-09T09:10:28.446Z,1648.00
2023-05-09T09:11:28.429Z,1664.00
2023-05-09T09:12:28.420Z,1653.00
2023-05-09T09:13:28.609Z,1614.00
2023-05-09T09:14:29.403Z,1606.00
2023-05-09T09:15:29.406Z,1601.00
2023-05-09T09:16:28.475Z,1653.00
2023-05-09T09:17:29.444Z,1553.00
2023-05-09T09:18:29.495Z,1564.00
2023-05-09T09:19:29.501Z,1533.00
2023-05-09T09:20:28.371Z,1527.00
2023-05-09T09:21:29.362Z,1559.00
2023-05-09T09:22:29.349Z,1555.00
2023-05-09T09:23:29.346Z,1558.00
2023-05-09T09:24:29.342Z,1567.00
2023-05-09T09:25:28.347Z,1560.00
2023-05-09T09:26:29.333Z,1556.00
2023-05-09T09:27:29.310Z,1539.00
2023-05-09T09:28:28.311Z,1552.00
2023-05-09T09:29:28.309Z,1548.00
2023-05-09T09:30:28.306Z,1467.00
2023-05-09T09:31:28.332Z,1507.00
2023-05-09T09:32:28.329Z,1493.00
2023-05-09T09:33:28.294Z,1449.00
2023-05-09T09:34:29.307Z,1502.00
2023-05-09T09:35:29.399Z,1461.00
2023-05-09T09:36:28.265Z,1476.00
2023-05-09T09:37:29.251Z,1465.00
2023-05-09T09:38:29.236Z,1440.00
2023-05-09T09:39:29.242Z,1353.00
2023-05-09T09:40:29.242Z,1457.00
2023-05-09T09:41:29.221Z,1469.00
2023-05-09T09:42:28.213Z,1491.00
2023-05-09T09:43:29.246Z,1549.00
2023-05-09T09:44:29.207Z,1438.00
2023-05-09T09:45:28.210Z,1514.00
2023-05-09T09:46:28.238Z,1255.00
2023-05-09T09:47:29.215Z,1184.00
2023-05-09T09:48:28.195Z,1180.00
2023-05-09T09:49:28.166Z,1225.00
2023-05-09T09:50:29.393Z,1211.00
2023-05-09T09:51:29.282Z,1194.00
2023-05-09T09:52:28.159Z,1195.00
2023-05-09T09:53:28.149Z,1337.00
2023-05-09T09:54:28.165Z,1393.00
2023-05-09T09:55:29.148Z,1373.00
2023-05-09T09:56:29.116Z,1388.00
2023-05-09T09:57:29.120Z,1507.00
2023-05-09T09:58:29.116Z,1485.00
2023-05-09T09:59:29.094Z,1491.00
2023-05-09T10:00:29.133Z,1464.00
2023-05-09T10:01:28.170Z,1491.00
2023-05-09T10:02:29.104Z,1439.00
2023-05-09T10:03:29.122Z,1493.00
2023-05-09T10:04:29.064Z,1509.00
2023-05-09T10:05:28.063Z,1515.00
2023-05-09T10:06:29.060Z,1341.00
2023-05-09T10:07:29.171Z,1271.00
2023-05-09T10:08:28.040Z,1253.00
2023-05-09T10:09:29.068Z,1390.00
2023-05-09T10:10:29.036Z,1358.00
2023-05-09T10:11:28.052Z,1336.00
2023-05-09T10:12:28.024Z,1429.00
2023-05-09T10:13:28.054Z,1373.00
2023-05-09T10:14:27.992Z,1419.00
2023-05-09T10:15:30.059Z,1440.00
2023-05-09T10:16:42.589Z,1433.00
2023-05-09T10:17:29.091Z,1442.00
2023-05-09T10:18:28.108Z,1438.00
2023-05-09T10:19:28.968Z,1449.00
2023-05-09T10:20:28.958Z,1359.00
2023-05-09T10:21:28.953Z,1260.00
2023-05-09T10:22:28.941Z,1220.00
2023-05-09T10:23:29.070Z,1205.00
2023-05-09T10:24:28.929Z,1111.00
2023-05-09T10:25:28.920Z,1261.00
2023-05-09T10:26:27.942Z,1124.00
2023-05-09T10:27:28.904Z,1127.00
2023-05-09T10:28:28.896Z,1287.00
2023-05-09T10:29:27.893Z,1255.00
2023-05-09T10:30:30.217Z,1323.00
2023-05-09T10:31:27.903Z,1355.00
2023-05-09T10:32:28.885Z,1355.00
2023-05-09T10:33:28.855Z,1370.00
2023-05-09T10:34:28.856Z,1270.00
2023-05-09T10:35:27.856Z,1247.00
2023-05-09T10:36:28.831Z,1230.00
2023-05-09T10:37:28.834Z,1285.00
2023-05-09T10:38:28.835Z,1273.00
2023-05-09T10:39:27.983Z,1274.00
2023-05-09T10:40:27.833Z,1297.00
2023-05-09T10:41:27.904Z,1299.00
2023-05-09T10:42:28.853Z,1296.00
2023-05-09T10:43:27.848Z,1291.00
2023-05-09T10:44:28.836Z,1301.00
2023-05-09T10:45:28.835Z,1313.00
2023-05-09T10:46:27.984Z,1317.00
2023-05-09T10:47:28.856Z,1319.00
2023-05-09T10:48:28.840Z,1337.00
2023-05-09T10:49:28.856Z,1341.00
2023-05-09T10:50:27.885Z,1353.00
2023-05-09T10:51:27.926Z,1361.00
2023-05-09T10:52:27.979Z,1367.00
2023-05-09T10:53:28.028Z,1376.00
2023-05-09T10:54:30.925Z,1375.00
2023-05-09T10:55:29.220Z,1375.00
2023-05-09T10:56:29.083Z,1379.00
2023-05-09T10:57:28.074Z,1378.00
2023-05-09T10:58:28.042Z,1383.00
2023-05-09T10:59:29.040Z,1378.00
2023-05-09T11:00:29.027Z,1378.00
2023-05-09T11:01:29.060Z,1379.00
2023-05-09T11:02:29.134Z,1381.00
2023-05-09T11:03:29.097Z,1358.00
2023-05-09T11:04:28.010Z,1390.00
2023-05-09T11:05:29.009Z,1411.00
2023-05-09T11:06:28.012Z,1421.00
2023-05-09T11:07:29.001Z,1433.00
2023-05-09T11:08:27.987Z,1438.00
2023-05-09T11:09:28.968Z,1448.00
2023-05-09T11:10:28.971Z,1455.00
2023-05-09T11:11:29.120Z,1459.00
2023-05-09T11:12:28.968Z,1467.00
2023-05-09T11:13:29.001Z,1470.00
2023-05-09T11:14:27.954Z,1478.00
2023-05-09T11:15:28.947Z,1485.00
2023-05-09T11:16:27.972Z,1489.00
2023-05-09T11:17:27.952Z,1488.00
2023-05-09T11:18:27.918Z,1490.00
2023-05-09T11:19:27.909Z,1488.00
2023-05-09T11:20:28.925Z,1480.00
2023-05-09T11:21:27.929Z,1476.00
2023-05-09T11:22:28.994Z,1471.00
2023-05-09T11:23:29.000Z,1468.00
2023-05-09T11:24:29.049Z,1461.00
2023-05-09T11:25:28.085Z,1448.00
2023-05-09T11:26:28.125Z,1438.00
2023-05-09T11:27:29.303Z,1333.00
2023-05-09T11:28:29.218Z,1365.00
2023-05-09T11:29:29.271Z,1379.00
2023-05-09T11:30:28.298Z,1374.00
2023-05-09T11:31:29.378Z,1373.00
2023-05-09T11:32:28.437Z,1284.00
2023-05-09T11:33:28.458Z,1223.00
2023-05-09T11:34:29.496Z,1226.00
2023-05-09T11:35:29.566Z,1040.00
2023-05-09T11:36:29.924Z,1018.00
2023-05-09T11:37:29.588Z,1010.00
2023-05-09T11:38:28.578Z,993.00
2023-05-09T11:39:29.575Z,983.00
2023-05-09T11:40:28.570Z,973.00
2023-05-09T11:41:29.929Z,1019.00
2023-05-09T11:42:28.557Z,1014.00
2023-05-09T11:43:29.685Z,1056.00
2023-05-09T11:44:28.542Z,1055.00
2023-05-09T11:45:28.573Z,1064.00
2023-05-09T11:46:29.666Z,1111.00
2023-05-09T11:47:29.604Z,1017.00
2023-05-09T11:48:28.582Z,980.00
2023-05-09T11:49:28.624Z,957.00
2023-05-09T11:50:29.594Z,938.00
2023-05-09T11:51:28.589Z,901.00
2023-05-09T11:52:28.589Z,882.00
2023-05-09T11:53:29.653Z,885.00
2023-05-09T11:54:29.575Z,878.00
2023-05-09T11:55:29.596Z,837.00
2023-05-09T11:56:28.612Z,823.00
2023-05-09T11:57:29.724Z,824.00
2023-05-09T11:58:28.606Z,825.00
2023-05-09T11:59:29.717Z,818.00
2023-05-09T12:00:28.603Z,817.00
2023-05-09T12:01:28.613Z,822.00
2023-05-09T12:02:29.763Z,760.00
2023-05-09T12:03:29.761Z,844.00
2023-05-09T12:04:29.646Z,825.00
2023-05-09T12:05:28.628Z,789.00
2023-05-09T12:06:28.627Z,775.00
2023-05-09T12:07:29.608Z,765.00
2023-05-09T12:08:29.663Z,753.00
2023-05-09T12:09:28.625Z,745.00
2023-05-09T12:10:29.647Z,737.00
2023-05-09T12:11:29.648Z,725.00
2023-05-09T12:12:28.614Z,714.00
2023-05-09T12:13:29.745Z,697.00
2023-05-09T12:14:29.652Z,689.00
2023-05-09T12:15:28.663Z,687.00
2023-05-09T12:16:29.736Z,680.00
2023-05-09T12:17:29.657Z,680.00
2023-05-09T12:18:28.649Z,682.00
2023-05-09T12:19:28.716Z,674.00
2023-05-09T12:20:29.673Z,664.00
2023-05-09T12:21:29.670Z,660.00
2023-05-09T12:22:28.687Z,649.00
2023-05-09T12:23:28.723Z,646.00
2023-05-09T12:24:29.744Z,636.00
2023-05-09T12:25:29.743Z,629.00
2023-05-09T12:26:28.732Z,632.00
2023-05-09T12:27:28.840Z,627.00
2023-05-09T12:28:29.751Z,625.00
2023-05-09T12:29:29.796Z,623.00
2023-05-09T12:30:28.802Z,624.00
2023-05-09T12:31:28.992Z,621.00
2023-05-09T12:32:28.888Z,620.00
2023-05-09T12:33:28.832Z,616.00
2023-05-09T12:34:28.827Z,611.00
2023-05-09T12:35:29.827Z,608.00
2023-05-09T12:36:29.864Z,616.00
2023-05-09T12:37:28.845Z,626.00
2023-05-09T12:38:29.840Z,632.00
2023-05-09T12:39:29.841Z,628.00
2023-05-09T12:40:28.840Z,631.00
2023-05-09T12:41:38.952Z,638.00
2023-05-09T12:42:29.837Z,641.00
2023-05-09T12:43:29.810Z,646.00
2023-05-09T12:44:30.363Z,631.00
2023-05-09T12:45:29.798Z,628.00
2023-05-09T12:46:29.811Z,617.00
2023-05-09T12:47:29.948Z,619.00
2023-05-09T12:48:29.799Z,593.00
2023-05-09T12:49:28.786Z,602.00
2023-05-09T12:50:28.774Z,624.00
2023-05-09T12:51:29.781Z,634.00
2023-05-09T12:52:28.756Z,624.00
2023-05-09T12:53:29.752Z,613.00
2023-05-09T12:54:29.752Z,604.00
2023-05-09T12:55:29.757Z,596.00
2023-05-09T12:56:29.738Z,585.00
2023-05-09T12:57:31.519Z,577.00
2023-05-09T12:58:28.731Z,575.00
2023-05-09T12:59:28.698Z,574.00
2023-05-09T13:00:29.706Z,572.00
2023-05-09T13:01:29.878Z,563.00
2023-05-09T13:02:29.713Z,559.00
2023-05-09T13:03:28.865Z,557.00
2023-05-09T13:04:29.758Z,554.00
2023-05-09T13:05:29.693Z,552.00
2023-05-09T13:06:28.689Z,549.00
2023-05-09T13:07:29.654Z,539.00
2023-05-09T13:08:29.652Z,533.00
2023-05-09T13:09:28.656Z,530.00
2023-05-09T13:10:28.651Z,528.00
2023-05-09T13:11:29.644Z,527.00
2023-05-09T13:12:29.622Z,527.00
2023-05-09T13:13:28.672Z,526.00
2023-05-09T13:14:29.648Z,523.00
2023-05-09T13:15:29.598Z,514.00
2023-05-09T13:16:29.617Z,508.00
2023-05-09T13:17:28.644Z,506.00
2023-05-09T13:18:29.581Z,504.00
2023-05-09T13:19:28.694Z,498.00
2023-05-09T13:20:29.571Z,497.00
2023-05-09T13:21:28.570Z,494.00
2023-05-09T13:22:29.549Z,495.00
2023-05-09T13:23:29.538Z,502.00
2023-05-09T13:24:28.526Z,512.00
2023-05-09T13:25:29.553Z,512.00
2023-05-09T13:26:28.541Z,513.00
2023-05-09T13:27:28.529Z,511.00
2023-05-09T13:28:29.496Z,509.00
2023-05-09T13:29:29.501Z,505.00
2023-05-09T13:30:29.523Z,504.00
2023-05-09T13:31:29.497Z,503.00
2023-05-09T13:32:29.500Z,501.00
2023-05-09T13:33:29.554Z,501.00
2023-05-09T13:34:29.466Z,505.00
2023-05-09T13:35:28.588Z,505.00
2023-05-09T13:36:29.452Z,522.00
2023-05-09T13:37:29.446Z,563.00
2023-05-09T13:38:29.450Z,583.00
2023-05-09T13:39:29.435Z,585.00
2023-05-09T13:40:28.434Z,593.00
2023-05-09T13:41:28.425Z,579.00
2023-05-09T13:42:28.415Z,578.00
2023-05-09T13:43:29.401Z,581.00
2023-05-09T13:44:29.404Z,584.00
2023-05-09T13:45:29.388Z,593.00
2023-05-09T13:46:29.531Z,599.00
2023-05-09T13:47:29.408Z,627.00
2023-05-09T13:48:29.371Z,655.00
2023-05-09T13:49:28.987Z,654.00
2023-05-09T13:50:29.357Z,659.00
2023-05-09T13:51:29.512Z,664.00
2023-05-09T13:52:28.373Z,659.00
2023-05-09T13:53:29.360Z,652.00
2023-05-09T13:54:28.381Z,641.00
2023-05-09T13:55:29.453Z,636.00
2023-05-09T13:56:28.499Z,628.00
2023-05-09T13:57:29.565Z,616.00
2023-05-09T13:58:28.549Z,605.00
2023-05-09T13:59:29.558Z,597.00
2023-05-09T14:00:28.590Z,587.00
2023-05-09T14:01:28.613Z,589.00
2023-05-09T14:02:28.588Z,586.00
2023-05-09T14:03:28.703Z,583.00
2023-05-09T14:04:29.578Z,579.00
2023-05-09T14:05:28.556Z,580.00
2023-05-09T14:06:29.603Z,577.00
2023-05-09T14:07:29.680Z,571.00
2023-05-09T14:08:28.554Z,562.00
2023-05-09T14:09:29.559Z,558.00
2023-05-09T14:10:29.561Z,553.00
2023-05-09T14:11:29.554Z,550.00
2023-05-09T14:12:29.560Z,543.00
2023-05-09T14:13:28.653Z,541.00
2023-05-09T14:14:29.547Z,542.00
2023-05-09T14:15:28.532Z,540.00
2023-05-09T14:16:28.649Z,538.00
2023-05-09T14:17:29.595Z,540.00
2023-05-09T14:18:29.524Z,545.00
2023-05-09T14:19:29.536Z,549.00
2023-05-09T14:20:29.555Z,541.00
2023-05-09T14:21:29.556Z,538.00
2023-05-09T14:22:28.574Z,533.00
2023-05-09T14:23:29.721Z,529.00
2023-05-09T14:24:28.597Z,527.00
2023-05-09T14:25:28.605Z,530.00
2023-05-09T14:26:29.643Z,534.00
2023-05-09T14:27:29.669Z,534.00
2023-05-09T14:28:28.680Z,530.00
2023-05-09T14:29:28.728Z,527.00
2023-05-09T14:30:28.833Z,524.00
2023-05-09T14:31:29.864Z,526.00
2023-05-09T14:32:29.863Z,527.00
2023-05-09T14:33:29.920Z,521.00
2023-05-09T14:34:29.957Z,519.00
2023-05-09T14:35:29.063Z,510.00
2023-05-09T14:36:29.048Z,503.00
2023-05-09T14:37:30.065Z,496.00
2023-05-09T14:38:30.112Z,495.00
2023-05-09T14:39:29.293Z,496.00
2023-05-09T14:40:30.194Z,493.00
2023-05-09T14:41:30.258Z,500.00
2023-05-09T14:42:30.340Z,498.00
2023-05-09T14:43:30.380Z,492.00
2023-05-09T14:44:30.425Z,489.00
2023-05-09T14:45:29.454Z,480.00
2023-05-09T14:46:29.521Z,472.00
2023-05-09T14:47:30.546Z,472.00
2023-05-09T14:48:29.453Z,467.00
2023-05-09T14:49:29.458Z,468.00
2023-05-09T14:50:30.513Z,468.00
2023-05-09T14:51:30.541Z,464.00
2023-05-09T14:52:29.598Z,454.00
2023-05-09T14:53:30.645Z,452.00
2023-05-09T14:54:30.674Z,450.00
2023-05-09T14:55:29.867Z,458.00
2023-05-09T14:56:29.739Z,456.00
2023-05-09T14:57:29.773Z,452.00
2023-05-09T14:58:29.819Z,452.00
2023-05-09T14:59:30.832Z,452.00
2023-05-09T15:00:30.904Z,449.00
2023-05-09T15:01:30.972Z,431.00
2023-05-09T15:02:29.987Z,441.00
2023-05-09T15:03:31.029Z,443.00
2023-05-09T15:04:30.153Z,444.00
2023-05-09T15:05:31.127Z,446.00
2023-05-09T15:06:31.198Z,445.00
2023-05-09T15:07:30.224Z,444.00
2023-05-09T15:08:30.291Z,444.00
2023-05-09T15:09:30.331Z,444.00
2023-05-09T15:10:31.382Z,446.00
2023-05-09T15:11:39.925Z,444.00
2023-05-09T15:12:31.415Z,446.00
2023-05-09T15:13:31.482Z,448.00
2023-05-09T15:14:30.391Z,443.00
2023-05-09T15:15:30.385Z,440.00
2023-05-09T15:16:30.407Z,442.00
2023-05-09T15:17:31.378Z,444.00
2023-05-09T15:18:30.370Z,441.00
2023-05-09T15:19:31.352Z,443.00
2023-05-09T15:20:30.351Z,438.00
2023-05-09T15:21:30.348Z,437.00
2023-05-09T15:22:31.338Z,437.00
2023-05-09T15:23:31.384Z,437.00
2023-05-09T15:24:31.312Z,434.00
2023-05-09T15:25:31.315Z,437.00
2023-05-09T15:26:30.347Z,436.00
2023-05-09T15:27:31.436Z,440.00
2023-05-09T15:28:30.284Z,442.00
2023-05-09T15:29:31.272Z,442.00
